European Seaway — MPDG3 — position and weather

sailwx.info

Track history (hours):
 
Tides and Currents Weather Stations Pressure Air Temp Water Temp Dewpoint Dewpoint Depression Visibility Wind Speed Wind Dir Waves Ship Positions

European Seaway

Operator: P & O Ferries

Last reported at 2018-Nov-11 02:30 UTC. Time now 2018-Nov-14 02:29 UTC.
Position N 50°58' E 001°52'.

Length 180 m; draft 5.5 m.

Type: Passenger vessel. MMSI: 232001040.

Date/timePositionNaut miles runAvg speedWind from/ knotsBaromVisibWave heightAir tempDewpointWater temp
2018-Nov-11 02:30N 50°58' E 001°52'0 0.0
2018-Nov-11 02:00N 50°58' E 001°52'0 0.0
2018-Nov-11 01:30N 50°58' E 001°52'0 0.0
2018-Nov-11 01:00N 50°58' E 001°52'0 0.0
2018-Nov-11 00:30N 50°58' E 001°52'0 0.0
2018-Nov-11 00:02N 50°58' E 001°52'0 0.0
2018-Nov-10 23:32N 50°58' E 001°52'0 0.0
2018-Nov-10 23:02N 50°58' E 001°52'0 0.0
2018-Nov-10 22:32N 50°58' E 001°52'0 0.0
2018-Nov-10 22:02N 50°58' E 001°52'0 0.0
2018-Nov-10 21:32N 50°58' E 001°52'0 0.0
2018-Nov-10 21:02N 50°58' E 001°52'0 0.0
2018-Nov-10 20:33N 50°58' E 001°52'0 0.0
2018-Nov-10 20:02N 50°58' E 001°52'1 1.4
2018-Nov-10 19:32N 50°58' E 001°51'5 9.3
2018-Nov-10 19:02N 50°58' E 001°44'918.1
2018-Nov-10 18:32N 51°02' E 001°31'816.8
2018-Nov-10 18:02N 51°07' E 001°20'0 0.0
2018-Nov-10 17:31N 51°07' E 001°20'1 1.3
2018-Nov-10 17:02N 51°07' E 001°21'918.2
2018-Nov-10 16:32N 51°03' E 001°34'918.6
2018-Nov-10 16:03N 50°58' E 001°46'3 6.0
2018-Nov-10 15:32N 50°58' E 001°51'0 0.0
2018-Nov-10 14:55N 50°58' E 001°51'0 0.0
2018-Nov-10 14:31N 50°58' E 001°51'714.5
2018-Nov-10 14:02N 50°59' E 001°40'918.8
2018-Nov-10 13:32N 51°04' E 001°28'611.6
2018-Nov-10 13:02N 51°07' E 001°20'0 0.0
2018-Nov-10 12:28N 51°07' E 001°20'0 0.1
2018-Nov-10 12:02N 51°07' E 001°20'713.3
2018-Nov-10 11:32N 51°05' E 001°30'918.5
2018-Nov-10 11:02N 50°60' E 001°42'611.7
2018-Nov-10 10:32N 50°58' E 001°51'0 0.1
2018-Nov-10 09:59N 50°58' E 001°51'0 0.0
2018-Nov-10 09:29N 50°58' E 001°51'0 0.0
2018-Nov-10 08:59N 50°58' E 001°51'0 0.0
2018-Nov-10 08:29N 50°58' E 001°51'0 0.0
2018-Nov-10 07:59N 50°58' E 001°51'0 0.0
2018-Nov-10 07:29N 50°58' E 001°51'0 0.0
2018-Nov-10 06:59N 50°58' E 001°51'0 0.0
2018-Nov-10 06:29N 50°58' E 001°51'0 0.0
2018-Nov-10 05:53N 50°58' E 001°51'0 0.0
2018-Nov-10 05:29N 50°58' E 001°51'0 0.0
2018-Nov-10 04:59N 50°58' E 001°51'0 0.0
2018-Nov-10 04:29N 50°58' E 001°51'0 0.0
2018-Nov-10 03:59N 50°58' E 001°51'0 0.0
2018-Nov-10 03:29N 50°58' E 001°51'0 0.0
2018-Nov-10 02:41N 50°58' E 001°51'0 0.0
2018-Nov-10 02:23N 50°58' E 001°51'0 0.0
2018-Nov-10 01:59N 50°58' E 001°51'0 0.0
2018-Nov-10 01:29N 50°58' E 001°51'0 0.0
2018-Nov-10 00:47N 50°58' E 001°51'0 0.0
2018-Nov-10 00:29N 50°58' E 001°51'0 0.0
2018-Nov-09 23:59N 50°58' E 001°51'0 0.0
2018-Nov-09 23:29N 50°58' E 001°51'0 0.0
2018-Nov-09 22:59N 50°58' E 001°51'0 0.0
2018-Nov-09 22:28N 50°58' E 001°51'0 0.0
2018-Nov-09 22:02N 50°58' E 001°51'0 0.0
2018-Nov-09 21:32N 50°58' E 001°51'0 0.0
2018-Nov-09 21:02N 50°58' E 001°51'0 0.0
2018-Nov-09 20:32N 50°58' E 001°51'0 0.0
2018-Nov-09 20:02N 50°58' E 001°51'3 7.0
2018-Nov-09 19:32N 50°58' E 001°45'917.2
2018-Nov-09 19:03N 51°01' E 001°33'918.7
2018-Nov-09 18:33N 51°07' E 001°21'1 1.4
2018-Nov-09 18:00N 51°07' E 001°20'1 2.4
2018-Nov-09 17:32N 51°07' E 001°22'2 3.8
2018-Nov-09 17:03N 51°07' E 001°25'815.4
2018-Nov-09 16:32N 51°03' E 001°35'1019.1
2018-Nov-09 16:02N 50°58' E 001°48'2 3.3
2018-Nov-09 15:32N 50°58' E 001°51'0 0.0
2018-Nov-09 15:02N 50°58' E 001°51'0 0.0
2018-Nov-09 14:29N 50°58' E 001°51'511.5
2018-Nov-09 14:02N 50°58' E 001°43'1020.2
2018-Nov-09 13:32N 51°03' E 001°28'714.0
2018-Nov-09 13:02N 51°07' E 001°20'0 0.0
2018-Nov-09 12:32N 51°07' E 001°20'0 0.0
2018-Nov-09 12:02N 51°07' E 001°20'3 6.1
2018-Nov-09 11:33N 51°07' E 001°25'917.2
2018-Nov-09 11:02N 51°03' E 001°37'816.4
2018-Nov-09 10:32N 50°58' E 001°48'3 3.2
2018-Nov-09 09:43N 50°58' E 001°52'0 0.0
2018-Nov-09 09:25N 50°58' E 001°52'0 0.0
2018-Nov-09 09:01N 50°58' E 001°52'0 0.0
2018-Nov-09 08:31N 50°58' E 001°52'0 0.0
2018-Nov-09 08:01N 50°58' E 001°52'0 0.0
2018-Nov-09 07:31N 50°58' E 001°52'0 0.0
2018-Nov-09 07:01N 50°58' E 001°52'0 0.0
2018-Nov-09 06:31N 50°58' E 001°52'0 0.0
2018-Nov-09 06:01N 50°58' E 001°52'0 0.0
2018-Nov-09 05:31N 50°58' E 001°52'0 0.0
2018-Nov-09 05:01N 50°58' E 001°52'0 0.0
2018-Nov-09 04:31N 50°58' E 001°52'0 0.0
2018-Nov-09 04:01N 50°58' E 001°52'0 0.0
2018-Nov-09 03:31N 50°58' E 001°52'0 0.0
2018-Nov-09 03:01N 50°58' E 001°52'0 0.0
2018-Nov-09 02:31N 50°58' E 001°52'0 0.0
2018-Nov-09 02:01N 50°58' E 001°52'0 0.0
2018-Nov-09 01:31N 50°58' E 001°52'0 0.0
2018-Nov-09 01:01N 50°58' E 001°52'0 0.0
2018-Nov-09 00:31N 50°58' E 001°52'0 0.0
2018-Nov-09 00:01N 50°58' E 001°52'0 0.0
2018-Nov-08 23:32N 50°58' E 001°52'0 0.0
2018-Nov-08 23:02N 50°58' E 001°52'0 0.0
2018-Nov-08 22:33N 50°58' E 001°52'0 0.0
2018-Nov-08 22:02N 50°58' E 001°52'0 0.0
2018-Nov-08 21:33N 50°58' E 001°52'0 0.0
2018-Nov-08 21:03N 50°58' E 001°52'0 0.0
2018-Nov-08 20:33N 50°58' E 001°52'0 0.0
2018-Nov-08 20:03N 50°58' E 001°52'0 0.2
2018-Nov-08 19:32N 50°58' E 001°51'713.4
2018-Nov-08 19:02N 50°58' E 001°41'918.0
2018-Nov-08 18:33N 51°04' E 001°29'713.7
2018-Nov-08 18:02N 51°07' E 001°20'0 0.0
2018-Nov-08 17:25N 51°07' E 001°20'2 4.0
2018-Nov-08 17:02N 51°07' E 001°22'816.5
2018-Nov-08 16:32N 51°03' E 001°34'917.9
2018-Nov-08 16:03N 50°58' E 001°46'3 6.8
2018-Nov-08 15:32N 50°58' E 001°51'0 0.0
2018-Nov-08 15:03N 50°58' E 001°51'0 0.0
2018-Nov-08 14:33N 50°58' E 001°51'612.9
2018-Nov-08 14:03N 50°59' E 001°41'1019.2
2018-Nov-08 13:33N 51°04' E 001°28'610.6
2018-Nov-08 12:58N 51°07' E 001°20'0 0.0
2018-Nov-08 12:08N 51°07' E 001°20'0 0.0
2018-Nov-08 12:02N 51°07' E 001°20'2 3.5
2018-Nov-08 11:32N 51°07' E 001°23'917.5
2018-Nov-08 11:02N 51°04' E 001°36'917.7
2018-Nov-08 10:32N 50°58' E 001°46'3 5.4
2018-Nov-08 09:55N 50°58' E 001°52'0 0.0
2018-Nov-08 09:28N 50°58' E 001°52'0 0.3
2018-Nov-08 08:59N 50°58' E 001°52'0 0.0
2018-Nov-08 08:32N 50°58' E 001°52'0 0.0
2018-Nov-08 08:02N 50°58' E 001°52'0 0.0
2018-Nov-08 07:32N 50°58' E 001°52'0 0.0
2018-Nov-08 07:02N 50°58' E 001°52'0 0.0
2018-Nov-08 06:29N 50°58' E 001°52'0 0.0
2018-Nov-08 06:02N 50°58' E 001°52'0 0.0
2018-Nov-08 05:32N 50°58' E 001°52'0 0.0
2018-Nov-08 05:02N 50°58' E 001°52'0 0.0
2018-Nov-08 04:32N 50°58' E 001°52'0 0.0
2018-Nov-08 04:02N 50°58' E 001°52'0 0.0
2018-Nov-08 03:32N 50°58' E 001°52'0 0.0
2018-Nov-08 03:02N 50°58' E 001°52'0 0.0
2018-Nov-08 02:32N 50°58' E 001°52'0 0.0
2018-Nov-08 02:02N 50°58' E 001°52'0 0.0
2018-Nov-08 01:32N 50°58' E 001°52'0 0.0
2018-Nov-08 00:59N 50°58' E 001°52'0 0.0
2018-Nov-08 00:43N 50°58' E 001°52'0 0.0
2018-Nov-08 00:32N 50°58' E 001°52'0 0.0
2018-Nov-08 00:28N 50°58' E 001°52'0 0.0
2018-Nov-08 00:02N 50°58' E 001°52'0 0.0
2018-Nov-07 23:32N 50°58' E 001°52'0 0.0
2018-Nov-07 23:02N 50°58' E 001°52'0 0.0
2018-Nov-07 22:32N 50°58' E 001°52'0 0.0
2018-Nov-07 22:02N 50°58' E 001°52'0 0.0
2018-Nov-07 21:32N 50°58' E 001°52'0 0.0
2018-Nov-07 21:02N 50°58' E 001°52'0 0.0
2018-Nov-07 20:32N 50°58' E 001°52'0 0.2
2018-Nov-07 20:02N 50°58' E 001°52'2 4.7
2018-Nov-07 19:32N 50°58' E 001°48'713.5
2018-Nov-07 19:02N 50°59' E 001°37'917.1
2018-Nov-07 18:33N 51°04' E 001°26'5 9.1
2018-Nov-07 17:58N 51°07' E 001°20'0 0.0
2018-Nov-07 17:32N 51°07' E 001°20'2 3.1
2018-Nov-07 17:02N 51°07' E 001°23'816.0
2018-Nov-07 16:32N 51°04' E 001°34'918.8
2018-Nov-07 16:02N 50°58' E 001°45'4 6.7
2018-Nov-07 15:31N 50°58' E 001°51'0 0.0
2018-Nov-07 15:00N 50°58' E 001°51'0 0.0
2018-Nov-07 14:33N 50°58' E 001°51'4 8.9
2018-Nov-07 14:02N 50°58' E 001°44'918.5
2018-Nov-07 13:32N 51°03' E 001°31'816.1
2018-Nov-07 13:01N 51°07' E 001°20'0 0.0
2018-Nov-07 12:32N 51°07' E 001°20'0 0.0
2018-Nov-07 12:02N 51°07' E 001°20'3 5.2
2018-Nov-07 11:32N 51°07' E 001°24'917.7
2018-Nov-07 11:02N 51°02' E 001°36'816.5
2018-Nov-07 10:32N 50°58' E 001°48'3 5.0
2018-Nov-07 10:02N 50°58' E 001°52'0 0.0
2018-Nov-07 09:32N 50°58' E 001°52'0 0.0
2018-Nov-07 09:02N 50°58' E 001°52'0 0.0
2018-Nov-07 08:32N 50°58' E 001°52'0 0.0
2018-Nov-07 08:00N 50°58' E 001°52'0 0.0
2018-Nov-07 07:32N 50°58' E 001°52'0 0.0
2018-Nov-07 07:00N 50°58' E 001°52'0 0.0
2018-Nov-07 06:32N 50°58' E 001°52'0 0.0
2018-Nov-07 06:02N 50°58' E 001°52'0 0.0
2018-Nov-07 05:32N 50°58' E 001°52'0 0.0
2018-Nov-07 05:02N 50°58' E 001°52'0 0.0
2018-Nov-07 04:32N 50°58' E 001°52'0 0.0
2018-Nov-06 23:30N 50°58' E 001°52'0 0.0
2018-Nov-06 23:03N 50°58' E 001°52'0 0.0
2018-Nov-06 23:00N 50°58' E 001°52'0 0.0
2018-Nov-06 22:00N 50°58' E 001°52'0 0.0
2018-Nov-06 21:30N 50°58' E 001°52'0 0.0
2018-Nov-06 21:03N 50°58' E 001°52'0 0.0
2018-Nov-06 21:00N 50°58' E 001°52'0 0.0
2018-Nov-06 20:30N 50°58' E 001°52'0 0.0
2018-Nov-06 20:03N 50°58' E 001°52'0 0.0
2018-Nov-06 20:00N 50°58' E 001°52'0 0.0
2018-Nov-06 19:30N 50°58' E 001°52'3 6.8
2018-Nov-06 19:04N 50°58' E 001°47'117.7
2018-Nov-06 19:01N 50°58' E 001°46'917.7
2018-Nov-06 18:31N 51°02' E 001°33'818.2
2018-Nov-06 18:03N 51°07' E 001°22'117.0
2018-Nov-06 18:00N 51°07' E 001°21'1 1.4
2018-Nov-06 17:28N 51°07' E 001°20'0 0.0
2018-Nov-06 17:03N 51°07' E 001°20'0 0.5
2018-Nov-06 17:00N 51°07' E 001°20'714.3
2018-Nov-06 16:31N 51°06' E 001°31'920.0
2018-Nov-06 16:04N 50°60' E 001°42'120.1
2018-Nov-06 16:00N 50°59' E 001°43'510.4
2018-Nov-06 15:30N 50°58' E 001°51'0 0.0
2018-Nov-06 15:03N 50°58' E 001°51'0 0.0
2018-Nov-06 15:00N 50°58' E 001°51'0 0.5
2018-Nov-06 14:30N 50°58' E 001°51'715.5
2018-Nov-06 14:03N 50°59' E 001°40'117.9
2018-Nov-06 14:00N 50°59' E 001°38'917.8
2018-Nov-06 13:30N 51°04' E 001°26'510.9
2018-Nov-06 13:02N 51°07' E 001°20'0 0.0
2018-Nov-06 13:00N 51°07' E 001°20'0 0.0
2018-Nov-06 12:28N 51°07' E 001°20'0 0.9
2018-Nov-06 12:03N 51°07' E 001°20'0 1.0
2018-Nov-06 12:00N 51°07' E 001°20'917.2
2018-Nov-06 11:31N 51°04' E 001°32'919.6
2018-Nov-06 11:04N 50°59' E 001°44'118.6
2018-Nov-06 11:00N 50°58' E 001°45'4 8.1
2018-Nov-06 10:30N 50°58' E 001°52'0 0.0
2018-Nov-06 10:03N 50°58' E 001°52'0 0.0
2018-Nov-06 10:00N 50°58' E 001°52'0 0.0
2018-Nov-06 09:30N 50°58' E 001°52'0 0.0
2018-Nov-06 09:03N 50°58' E 001°52'0 0.0
2018-Nov-06 09:01N 50°58' E 001°52'0 0.0
2018-Nov-06 08:30N 50°58' E 001°52'0 0.0
2018-Nov-06 08:03N 50°58' E 001°52'0 0.0
2018-Nov-06 08:01N 50°58' E 001°52'0 0.0
2018-Nov-06 07:30N 50°58' E 001°52'0 0.0
2018-Nov-06 07:03N 50°58' E 001°52'0 0.0
2018-Nov-06 07:00N 50°58' E 001°52'0 0.0
2018-Nov-06 06:31N 50°58' E 001°52'0 0.0
2018-Nov-06 06:03N 50°58' E 001°52'0 0.0
2018-Nov-06 06:00N 50°58' E 001°52'0 0.0
2018-Nov-06 05:30N 50°58' E 001°52'0 0.0
2018-Nov-06 05:03N 50°58' E 001°52'0 0.0
2018-Nov-06 05:00N 50°58' E 001°52'0 0.0
2018-Nov-06 04:31N 50°58' E 001°52'0 0.0
2018-Nov-06 04:03N 50°58' E 001°52'0 0.0
2018-Nov-06 04:01N 50°58' E 001°52'0 0.0
2018-Nov-06 03:30N 50°58' E 001°52'0 0.0
2018-Nov-06 03:03N 50°58' E 001°52'0 0.0
2018-Nov-06 03:00N 50°58' E 001°52'0 0.0
2018-Nov-06 02:30N 50°58' E 001°52'0 0.0
2018-Nov-06 02:03N 50°58' E 001°52'0 0.0
2018-Nov-06 02:00N 50°58' E 001°52'0 0.0
2018-Nov-06 01:30N 50°58' E 001°52'0 0.0
2018-Nov-06 00:30N 50°58' E 001°52'0 0.0
2018-Nov-05 23:30N 50°58' E 001°52'0 0.0
2018-Nov-05 23:03N 50°58' E 001°52'0 0.0
2018-Nov-05 23:01N 50°58' E 001°52'0 0.0
2018-Nov-05 22:30N 50°58' E 001°52'0 0.0
2018-Nov-05 22:03N 50°58' E 001°52'0 0.0
2018-Nov-05 22:00N 50°58' E 001°52'0 0.0
2018-Nov-05 21:30N 50°58' E 001°52'0 0.0
2018-Nov-05 21:03N 50°58' E 001°52'0 0.0
2018-Nov-05 21:00N 50°58' E 001°52'0 0.0
2018-Nov-05 20:30N 50°58' E 001°52'0 0.0
2018-Nov-05 20:04N 50°58' E 001°52'0 0.0
2018-Nov-05 20:00N 50°58' E 001°52'1 1.3
2018-Nov-05 19:31N 50°58' E 001°51'817.3
2018-Nov-05 19:03N 50°59' E 001°38'119.4
2018-Nov-05 19:00N 50°60' E 001°37'816.5
2018-Nov-05 18:31N 51°05' E 001°26'510.6
2018-Nov-05 18:03N 51°07' E 001°20'0 0.0
2018-Nov-05 18:00N 51°07' E 001°20'0 0.0
2018-Nov-05 17:29N 51°07' E 001°20'0 0.0
2018-Nov-05 17:02N 51°07' E 001°20'0 0.0
2018-Nov-05 17:00N 51°07' E 001°20'612.3
2018-Nov-05 16:30N 51°06' E 001°29'920.4
2018-Nov-05 16:03N 50°60' E 001°41'120.5
2018-Nov-05 16:00N 50°59' E 001°42'611.3
2018-Nov-05 15:30N 50°58' E 001°51'0 0.0
2018-Nov-05 15:03N 50°58' E 001°51'0 0.0
2018-Nov-05 15:00N 50°58' E 001°51'0 0.1
2018-Nov-05 14:30N 50°58' E 001°51'612.9
2018-Nov-05 14:03N 50°58' E 001°42'1017.9
2018-Nov-05 13:30N 51°04' E 001°29'713.8
2018-Nov-05 13:02N 51°07' E 001°20'0 0.0
2018-Nov-05 12:55N 51°07' E 001°20'0 0.0
2018-Nov-05 12:23N 51°07' E 001°20'0 0.0
2018-Nov-05 11:58N 51°07' E 001°20'1 1.7
2018-Nov-05 11:30N 51°07' E 001°21'818.6
2018-Nov-05 11:03N 51°03' E 001°33'120.1
2018-Nov-05 11:00N 51°03' E 001°34'918.5
2018-Nov-05 10:30N 50°58' E 001°47'3 6.3
2018-Nov-05 10:03N 50°58' E 001°52'0 0.0
2018-Nov-05 10:00N 50°58' E 001°52'0 0.0
2018-Nov-05 09:30N 50°58' E 001°52'0 0.3
2018-Nov-05 09:03N 50°58' E 001°52'0 0.0
2018-Nov-05 09:00N 50°58' E 001°52'0 0.0
2018-Nov-05 08:30N 50°58' E 001°52'0 0.0
2018-Nov-05 08:03N 50°58' E 001°52'0 0.0
2018-Nov-05 08:00N 50°58' E 001°52'0 0.0
2018-Nov-05 07:30N 50°58' E 001°52'0 0.0
2018-Nov-05 07:03N 50°58' E 001°52'0 0.0
2018-Nov-05 07:00N 50°58' E 001°52'0 0.0
2018-Nov-05 06:30N 50°58' E 001°52'0 0.0
2018-Nov-05 06:03N 50°58' E 001°52'0 0.0
2018-Nov-05 06:00N 50°58' E 001°52'0 0.0
2018-Nov-05 05:30N 50°58' E 001°52'0 0.0
2018-Nov-05 05:03N 50°58' E 001°52'0 0.0
2018-Nov-05 05:00N 50°58' E 001°52'0 0.0
2018-Nov-05 04:30N 50°58' E 001°52'0 0.0
2018-Nov-05 04:03N 50°58' E 001°52'0 0.0
2018-Nov-05 04:00N 50°58' E 001°52'0 0.0
2018-Nov-05 03:30N 50°58' E 001°52'0 0.0
2018-Nov-05 03:03N 50°58' E 001°52'0 0.0
2018-Nov-05 03:00N 50°58' E 001°52'0 0.0
2018-Nov-05 02:30N 50°58' E 001°52'0 0.0
2018-Nov-05 02:03N 50°58' E 001°52'0 0.0
2018-Nov-05 02:00N 50°58' E 001°52'0 0.0
2018-Nov-05 01:30N 50°58' E 001°52'0 0.0
2018-Nov-05 01:03N 50°58' E 001°52'0 0.0
2018-Nov-05 01:00N 50°58' E 001°52'0 0.0
2018-Nov-05 00:31N 50°58' E 001°52'0 0.0
2018-Nov-05 00:03N 50°58' E 001°52'0 0.0
2018-Nov-05 00:00N 50°58' E 001°52'0 0.0
2018-Nov-04 23:31N 50°58' E 001°52'0 0.0
2018-Nov-04 23:03N 50°58' E 001°52'0 0.0
2018-Nov-04 23:00N 50°58' E 001°52'0 0.0
2018-Nov-04 22:29N 50°58' E 001°52'0 0.0
2018-Nov-04 22:03N 50°58' E 001°52'0 0.0
2018-Nov-04 22:00N 50°58' E 001°52'0 0.0
2018-Nov-04 21:30N 50°58' E 001°52'0 0.0
2018-Nov-04 21:03N 50°58' E 001°52'0 0.0
2018-Nov-04 21:00N 50°58' E 001°52'0 0.0
2018-Nov-04 20:30N 50°58' E 001°52'0 0.0
2018-Nov-04 20:03N 50°58' E 001°52'0 0.0
2018-Nov-04 20:01N 50°58' E 001°52'0 0.2
2018-Nov-04 19:30N 50°58' E 001°52'4 7.9
2018-Nov-04 19:03N 50°58' E 001°46'120.2
2018-Nov-04 19:00N 50°58' E 001°44'1019.8
2018-Nov-04 18:30N 51°02' E 001°30'817.8
2018-Nov-04 18:03N 51°07' E 001°20'0 0.1
2018-Nov-04 17:50N 51°07' E 001°20'0 0.0
2018-Nov-04 17:23N 51°07' E 001°20'0 0.0
2018-Nov-04 16:58N 51°07' E 001°20'612.7
2018-Nov-04 16:30N 51°06' E 001°29'920.0
2018-Nov-04 16:03N 51°00' E 001°40'121.0
2018-Nov-04 16:00N 50°59' E 001°42'612.1
2018-Nov-04 15:30N 50°58' E 001°51'0 0.0
2018-Nov-04 15:03N 50°58' E 001°51'0 0.0
2018-Nov-04 15:00N 50°58' E 001°51'0 0.0
2018-Nov-04 14:30N 50°58' E 001°51'613.3
2018-Nov-04 14:03N 50°58' E 001°41'117.7
2018-Nov-04 14:00N 50°59' E 001°40'918.0
2018-Nov-04 13:30N 51°04' E 001°28'613.9
2018-Nov-04 13:03N 51°07' E 001°20'0 0.0
2018-Nov-04 13:00N 51°07' E 001°20'0 0.0
2018-Nov-04 12:30N 51°07' E 001°20'0 0.0
2018-Nov-04 12:03N 51°07' E 001°20'0 0.0
2018-Nov-04 11:59N 51°07' E 001°20'2 4.7
2018-Nov-04 11:31N 51°07' E 001°24'919.1
2018-Nov-04 11:04N 51°03' E 001°36'119.6
2018-Nov-04 11:01N 51°02' E 001°37'917.7
2018-Nov-04 10:31N 50°58' E 001°49'1 3.2
2018-Nov-04 10:03N 50°58' E 001°52'0 0.0
2018-Nov-04 10:00N 50°58' E 001°52'0 0.5
2018-Nov-04 09:31N 50°58' E 001°52'0 0.0
2018-Nov-04 08:58N 50°58' E 001°52'0 0.0
2018-Nov-04 08:28N 50°58' E 001°52'0 0.0
2018-Nov-04 08:01N 50°58' E 001°52'0 0.0
2018-Nov-04 07:58N 50°58' E 001°52'0 0.0
2018-Nov-04 07:22N 50°58' E 001°52'0 0.0
2018-Nov-04 07:01N 50°58' E 001°52'0 0.0
2018-Nov-04 06:58N 50°58' E 001°52'0 0.0
2018-Nov-04 06:28N 50°58' E 001°52'0 0.0
2018-Nov-04 06:03N 50°58' E 001°52'0 0.0
2018-Nov-04 06:00N 50°58' E 001°52'0 0.0
2018-Nov-04 05:30N 50°58' E 001°52'0 0.0
2018-Nov-04 05:03N 50°58' E 001°52'0 0.0
2018-Nov-04 05:00N 50°58' E 001°52'0 0.0
2018-Nov-04 04:30N 50°58' E 001°52'0 0.0
2018-Nov-04 04:03N 50°58' E 001°52'0 0.0
2018-Nov-04 04:00N 50°58' E 001°52'0 0.0
2018-Nov-04 03:31N 50°58' E 001°52'0 0.0
2018-Nov-04 03:04N 50°58' E 001°52'0 0.0
2018-Nov-04 03:00N 50°58' E 001°52'0 0.0
2018-Nov-04 02:30N 50°58' E 001°52'0 0.0
2018-Nov-04 02:03N 50°58' E 001°52'0 0.0
2018-Nov-04 02:00N 50°58' E 001°52'0 0.0
2018-Nov-04 01:30N 50°58' E 001°52'0 0.0
2018-Nov-04 01:03N 50°58' E 001°52'0 0.0
2018-Nov-04 01:00N 50°58' E 001°52'0 0.0
2018-Nov-04 00:30N 50°58' E 001°52'0 0.0
2018-Nov-04 00:03N 50°58' E 001°52'0 0.0
2018-Nov-04 00:00N 50°58' E 001°52'0 0.0
2018-Nov-03 23:30N 50°58' E 001°52'0 0.0
2018-Nov-03 23:03N 50°58' E 001°52'0 0.0
2018-Nov-03 23:00N 50°58' E 001°52'0 0.0
2018-Nov-03 22:30N 50°58' E 001°52'0 0.0
2018-Nov-03 20:30N 50°58' E 001°52'0 0.0
2018-Nov-03 20:03N 50°58' E 001°52'0 0.0
2018-Nov-03 20:00N 50°58' E 001°52'0 0.0
2018-Nov-03 19:30N 50°58' E 001°52'0 0.0
2018-Nov-03 19:03N 50°58' E 001°52'0 0.0
2018-Nov-03 19:00N 50°58' E 001°52'612.6
2018-Nov-03 18:31N 50°59' E 001°42'919.6
2018-Nov-03 18:03N 51°03' E 001°30'119.2
2018-Nov-03 18:01N 51°04' E 001°29'713.1
2018-Nov-03 17:30N 51°07' E 001°20'0 0.4
2018-Nov-03 17:03N 51°07' E 001°20'0 0.4
2018-Nov-03 17:01N 51°07' E 001°20'917.5
2018-Nov-03 16:31N 51°03' E 001°32'920.5
2018-Nov-03 16:03N 50°58' E 001°45'119.5
2018-Nov-03 16:00N 50°58' E 001°46'3 5.9
2018-Nov-03 15:30N 50°58' E 001°51'0 0.0
2018-Nov-03 15:03N 50°58' E 001°51'0 0.0
2018-Nov-03 15:00N 50°58' E 001°51'0 0.1
2018-Nov-03 14:30N 50°58' E 001°51'714.5
2018-Nov-03 14:03N 50°58' E 001°41'118.9
2018-Nov-03 14:00N 50°59' E 001°39'1019.2
2018-Nov-03 13:30N 51°04' E 001°26'511.7
2018-Nov-03 13:03N 51°07' E 001°20'0 0.0
2018-Nov-03 13:01N 51°07' E 001°20'0 0.0
2018-Nov-03 12:30N 51°07' E 001°20'0 0.0
2018-Nov-03 11:58N 51°07' E 001°20'1 3.2
2018-Nov-03 11:31N 51°07' E 001°22'919.6
2018-Nov-03 11:04N 51°03' E 001°34'120.2
2018-Nov-03 11:01N 51°02' E 001°36'918.5
2018-Nov-03 10:31N 50°58' E 001°49'2 3.5
2018-Nov-03 10:03N 50°58' E 001°52'0 0.0
2018-Nov-03 10:00N 50°58' E 001°52'0 0.0
2018-Nov-03 09:30N 50°58' E 001°52'0 0.0
2018-Nov-03 09:03N 50°58' E 001°52'0 0.0
2018-Nov-03 09:00N 50°58' E 001°52'0 0.0
2018-Nov-03 08:31N 50°58' E 001°52'0 0.0
2018-Nov-03 08:03N 50°58' E 001°52'0 0.0
2018-Nov-03 08:00N 50°58' E 001°52'0 0.0
2018-Nov-03 07:30N 50°58' E 001°52'0 0.0
2018-Nov-03 07:03N 50°58' E 001°52'0 0.0
2018-Nov-03 07:00N 50°58' E 001°52'0 0.0
2018-Nov-03 06:30N 50°58' E 001°52'0 0.0
2018-Nov-03 06:03N 50°58' E 001°52'0 0.0
2018-Nov-03 06:00N 50°58' E 001°52'0 0.0
2018-Nov-03 05:30N 50°58' E 001°52'0 0.0
2018-Nov-03 05:03N 50°58' E 001°52'0 0.0
2018-Nov-03 05:00N 50°58' E 001°52'0 0.0
2018-Nov-03 04:30N 50°58' E 001°52'0 0.0
2018-Nov-03 04:03N 50°58' E 001°52'0 0.0
2018-Nov-03 04:00N 50°58' E 001°52'0 0.0
2018-Nov-03 03:31N 50°58' E 001°52'0 0.0
2018-Nov-03 03:03N 50°58' E 001°52'0 0.0
2018-Nov-03 03:00N 50°58' E 001°52'0 0.0
2018-Nov-03 02:30N 50°58' E 001°52'0 0.0
2018-Nov-03 02:03N 50°58' E 001°52'0 0.0
2018-Nov-03 02:00N 50°58' E 001°52'0 0.0
2018-Nov-03 01:30N 50°58' E 001°52'0 0.0
2018-Nov-03 01:03N 50°58' E 001°52'0 0.0
2018-Nov-03 01:00N 50°58' E 001°52'0 0.0
2018-Nov-03 00:30N 50°58' E 001°52'0 0.0
2018-Nov-03 00:03N 50°58' E 001°52'0 0.0
2018-Nov-03 00:00N 50°58' E 001°52'0 0.0
2018-Nov-02 23:30N 50°58' E 001°52'0 0.0
2018-Nov-02 23:03N 50°58' E 001°52'0 0.0
2018-Nov-02 23:00N 50°58' E 001°52'0 0.0
2018-Nov-02 22:30N 50°58' E 001°52'0 0.0
2018-Nov-02 22:03N 50°58' E 001°52'0 0.0
2018-Nov-02 21:59N 50°58' E 001°52'0 0.0
2018-Nov-02 21:30N 50°58' E 001°52'0 0.0
2018-Nov-02 21:03N 50°58' E 001°52'0 0.0
2018-Nov-02 21:00N 50°58' E 001°52'0 0.0
2018-Nov-02 20:30N 50°58' E 001°52'0 0.0
2018-Nov-02 20:03N 50°58' E 001°52'0 0.0
2018-Nov-02 20:00N 50°58' E 001°52'0 0.0
2018-Nov-02 19:31N 50°58' E 001°52'1 2.9
2018-Nov-02 19:03N 50°58' E 001°50'0 9.2
2018-Nov-02 19:00N 50°58' E 001°49'714.9
2018-Nov-02 18:30N 50°59' E 001°37'919.9
2018-Nov-02 18:04N 51°04' E 001°26'120.0
2018-Nov-02 18:01N 51°05' E 001°25'4 7.9
2018-Nov-02 17:30N 51°07' E 001°20'0 0.0
2018-Nov-02 17:03N 51°07' E 001°20'0 0.0
2018-Nov-02 17:00N 51°07' E 001°20'5 9.4
2018-Nov-02 16:30N 51°06' E 001°27'920.6
2018-Nov-02 16:03N 51°01' E 001°39'120.7
2018-Nov-02 16:00N 51°00' E 001°41'713.2
2018-Nov-02 15:29N 50°58' E 001°51'0 0.0
2018-Nov-02 15:03N 50°58' E 001°51'0 0.0
2018-Nov-02 15:00N 50°58' E 001°51'0 1.0
2018-Nov-02 14:30N 50°58' E 001°50'814.2
2018-Nov-02 13:58N 50°58' E 001°38'919.1
2018-Nov-02 13:30N 51°04' E 001°27'612.6
2018-Nov-02 13:03N 51°07' E 001°20'0 0.0
2018-Nov-02 12:54N 51°07' E 001°20'0 0.0
2018-Nov-02 12:30N 51°07' E 001°20'0 0.7
2018-Nov-02 12:03N 51°07' E 001°20'0 0.9
2018-Nov-02 12:00N 51°07' E 001°20'612.8
2018-Nov-02 11:30N 51°06' E 001°30'817.1
2018-Nov-02 11:03N 51°00' E 001°38'117.6
2018-Nov-02 11:00N 50°60' E 001°40'815.2
2018-Nov-02 10:30N 50°58' E 001°51'0 0.3
2018-Nov-02 10:03N 50°58' E 001°52'0 0.0
2018-Nov-02 10:00N 50°58' E 001°52'0 0.0
2018-Nov-02 09:28N 50°58' E 001°52'0 0.0
2018-Nov-02 09:03N 50°58' E 001°52'0 0.0
2018-Nov-02 09:00N 50°58' E 001°52'0 0.0
2018-Nov-02 08:30N 50°58' E 001°52'0 0.0
2018-Nov-02 08:03N 50°58' E 001°52'0 0.0
2018-Nov-02 08:00N 50°58' E 001°52'0 0.0
2018-Nov-02 07:30N 50°58' E 001°52'0 0.0
2018-Nov-02 07:03N 50°58' E 001°52'0 0.0
2018-Nov-02 07:00N 50°58' E 001°52'0 0.0
2018-Nov-02 06:30N 50°58' E 001°52'0 0.0
2018-Nov-02 06:03N 50°58' E 001°52'0 0.0
2018-Nov-02 06:00N 50°58' E 001°52'0 0.0
2018-Nov-02 05:30N 50°58' E 001°52'0 0.0
2018-Nov-02 05:03N 50°58' E 001°52'0 0.0
2018-Nov-02 05:00N 50°58' E 001°52'0 0.0
2018-Nov-02 04:30N 50°58' E 001°52'0 0.0
2018-Nov-02 04:03N 50°58' E 001°52'0 0.0
2018-Nov-02 04:00N 50°58' E 001°52'0 0.0
2018-Nov-02 03:30N 50°58' E 001°52'0 0.0
2018-Nov-02 03:03N 50°58' E 001°52'0 0.0
2018-Nov-02 03:00N 50°58' E 001°52'0 0.0
2018-Nov-02 02:30N 50°58' E 001°52'0 0.0
2018-Nov-02 02:03N 50°58' E 001°52'0 0.0
2018-Nov-02 02:00N 50°58' E 001°52'0 0.0
2018-Nov-02 01:30N 50°58' E 001°52'0 0.0
2018-Nov-02 01:03N 50°58' E 001°52'0 0.0
2018-Nov-02 01:00N 50°58' E 001°52'0 0.0
2018-Nov-02 00:56N 50°58' E 001°52'0 0.0
2018-Nov-02 00:36N 50°58' E 001°52'0 0.0
2018-Nov-02 00:30N 50°58' E 001°52'0 0.0
2018-Nov-02 00:03N 50°58' E 001°52'0 0.0
2018-Nov-02 00:00N 50°58' E 001°52'0 0.0
2018-Nov-01 23:30N 50°58' E 001°52'0 0.0
2018-Nov-01 23:03N 50°58' E 001°52'0 0.0
2018-Nov-01 23:00N 50°58' E 001°52'0 0.0
2018-Nov-01 22:30N 50°58' E 001°52'0 0.0
2018-Nov-01 22:03N 50°58' E 001°52'0 0.0
2018-Nov-01 22:00N 50°58' E 001°52'0 0.0
2018-Nov-01 21:30N 50°58' E 001°52'0 0.0
2018-Nov-01 21:03N 50°58' E 001°52'0 0.0
2018-Nov-01 21:00N 50°58' E 001°52'0 0.0
2018-Nov-01 20:30N 50°58' E 001°52'0 0.0
2018-Nov-01 20:03N 50°58' E 001°52'0 0.0
2018-Nov-01 20:00N 50°58' E 001°52'0 0.0
2018-Nov-01 19:30N 50°58' E 001°52'1 2.1
2018-Nov-01 19:03N 50°58' E 001°50'112.5
2018-Nov-01 19:00N 50°58' E 001°49'918.0
2018-Nov-01 18:30N 50°60' E 001°35'919.3
2018-Nov-01 18:03N 51°06' E 001°25'120.2
2018-Nov-01 18:00N 51°06' E 001°23'2 4.6
2018-Nov-01 17:29N 51°07' E 001°20'0 0.0
2018-Nov-01 17:03N 51°07' E 001°20'0 0.2
2018-Nov-01 17:00N 51°07' E 001°20'510.8
2018-Nov-01 16:31N 51°05' E 001°28'919.2
2018-Nov-01 16:03N 51°01' E 001°39'119.0
2018-Nov-01 16:00N 51°00' E 001°41'713.1
2018-Nov-01 15:29N 50°58' E 001°51'0 0.0
2018-Nov-01 15:03N 50°58' E 001°51'0 0.0
2018-Nov-01 15:00N 50°58' E 001°51'0 0.0
2018-Nov-01 14:30N 50°58' E 001°51'510.6
2018-Nov-01 14:00N 50°58' E 001°43'918.9
2018-Nov-01 13:31N 51°03' E 001°30'716.3
2018-Nov-01 13:03N 51°07' E 001°20'0 0.0
2018-Nov-01 13:00N 51°07' E 001°20'0 0.0
2018-Nov-01 12:28N 51°07' E 001°20'0 0.0
2018-Nov-01 12:02N 51°07' E 001°20'0 0.0
2018-Nov-01 11:59N 51°07' E 001°20'0 0.6
2018-Nov-01 11:31N 51°07' E 001°20'817.7
2018-Nov-01 11:03N 51°04' E 001°32'119.8
2018-Nov-01 11:00N 51°04' E 001°33'1019.5
2018-Nov-01 10:30N 50°58' E 001°46'3 7.5
2018-Nov-01 10:03N 50°58' E 001°52'0 0.0
2018-Nov-01 10:00N 50°58' E 001°52'0 0.0
2018-Nov-01 09:30N 50°58' E 001°52'0 0.3
2018-Nov-01 09:03N 50°58' E 001°52'0 0.7
2018-Nov-01 09:00N 50°58' E 001°52'0 0.0
2018-Nov-01 08:30N 50°58' E 001°52'0 0.0
2018-Nov-01 08:03N 50°58' E 001°52'0 0.0
2018-Nov-01 08:00N 50°58' E 001°52'0 0.0
2018-Nov-01 07:30N 50°58' E 001°52'0 0.0
2018-Nov-01 07:03N 50°58' E 001°52'0 0.0
2018-Nov-01 07:00N 50°58' E 001°52'0 0.0
2018-Nov-01 06:30N 50°58' E 001°52'0 0.0
2018-Nov-01 06:03N 50°58' E 001°52'0 0.0
2018-Nov-01 06:00N 50°58' E 001°52'0 0.0
2018-Nov-01 05:30N 50°58' E 001°52'0 0.0
2018-Nov-01 05:03N 50°58' E 001°52'0 0.0
2018-Nov-01 05:00N 50°58' E 001°52'0 0.0
2018-Nov-01 04:30N 50°58' E 001°52'0 0.0
2018-Nov-01 04:03N 50°58' E 001°52'0 0.0
2018-Nov-01 04:00N 50°58' E 001°52'0 0.0
2018-Nov-01 03:30N 50°58' E 001°52'0 0.0
2018-Nov-01 03:03N 50°58' E 001°52'0 0.0
2018-Nov-01 03:00N 50°58' E 001°52'0 0.0
2018-Nov-01 02:30N 50°58' E 001°52'  
Track history (hours):
 
Tides and Currents Weather Stations Pressure Air Temp Water Temp Dewpoint Dewpoint Depression Visibility Wind Speed Wind Dir Waves Ship Positions

European Seaway

Operator: P & O Ferries

Last reported at 2018-Nov-11 02:30 UTC. Time now 2018-Nov-14 02:29 UTC.
Position N 50°58' E 001°52'.

Length 180 m; draft 5.5 m.

Type: Passenger vessel. MMSI: 232001040.

Date/timePositionNaut miles runAvg speedWind from/ knotsBaromVisibWave heightAir tempDewpointWater temp
2018-Nov-11 02:30N 50°58' E 001°52'0 0.0
2018-Nov-11 02:00N 50°58' E 001°52'0 0.0
2018-Nov-11 01:30N 50°58' E 001°52'0 0.0
2018-Nov-11 01:00N 50°58' E 001°52'0 0.0
2018-Nov-11 00:30N 50°58' E 001°52'0 0.0
2018-Nov-11 00:02N 50°58' E 001°52'0 0.0
2018-Nov-10 23:32N 50°58' E 001°52'0 0.0
2018-Nov-10 23:02N 50°58' E 001°52'0 0.0
2018-Nov-10 22:32N 50°58' E 001°52'0 0.0
2018-Nov-10 22:02N 50°58' E 001°52'0 0.0
2018-Nov-10 21:32N 50°58' E 001°52'0 0.0
2018-Nov-10 21:02N 50°58' E 001°52'0 0.0
2018-Nov-10 20:33N 50°58' E 001°52'0 0.0
2018-Nov-10 20:02N 50°58' E 001°52'1 1.4
2018-Nov-10 19:32N 50°58' E 001°51'5 9.3
2018-Nov-10 19:02N 50°58' E 001°44'918.1
2018-Nov-10 18:32N 51°02' E 001°31'816.8
2018-Nov-10 18:02N 51°07' E 001°20'0 0.0
2018-Nov-10 17:31N 51°07' E 001°20'1 1.3
2018-Nov-10 17:02N 51°07' E 001°21'918.2
2018-Nov-10 16:32N 51°03' E 001°34'918.6
2018-Nov-10 16:03N 50°58' E 001°46'3 6.0
2018-Nov-10 15:32N 50°58' E 001°51'0 0.0
2018-Nov-10 14:55N 50°58' E 001°51'0 0.0
2018-Nov-10 14:31N 50°58' E 001°51'714.5
2018-Nov-10 14:02N 50°59' E 001°40'918.8
2018-Nov-10 13:32N 51°04' E 001°28'611.6
2018-Nov-10 13:02N 51°07' E 001°20'0 0.0
2018-Nov-10 12:28N 51°07' E 001°20'0 0.1
2018-Nov-10 12:02N 51°07' E 001°20'713.3
2018-Nov-10 11:32N 51°05' E 001°30'918.5
2018-Nov-10 11:02N 50°60' E 001°42'611.7
2018-Nov-10 10:32N 50°58' E 001°51'0 0.1
2018-Nov-10 09:59N 50°58' E 001°51'0 0.0
2018-Nov-10 09:29N 50°58' E 001°51'0 0.0
2018-Nov-10 08:59N 50°58' E 001°51'0 0.0
2018-Nov-10 08:29N 50°58' E 001°51'0 0.0
2018-Nov-10 07:59N 50°58' E 001°51'0 0.0
2018-Nov-10 07:29N 50°58' E 001°51'0 0.0
2018-Nov-10 06:59N 50°58' E 001°51'0 0.0
2018-Nov-10 06:29N 50°58' E 001°51'0 0.0
2018-Nov-10 05:53N 50°58' E 001°51'0 0.0
2018-Nov-10 05:29N 50°58' E 001°51'0 0.0
2018-Nov-10 04:59N 50°58' E 001°51'0 0.0
2018-Nov-10 04:29N 50°58' E 001°51'0 0.0
2018-Nov-10 03:59N 50°58' E 001°51'0 0.0
2018-Nov-10 03:29N 50°58' E 001°51'0 0.0
2018-Nov-10 02:41N 50°58' E 001°51'0 0.0
2018-Nov-10 02:23N 50°58' E 001°51'0 0.0
2018-Nov-10 01:59N 50°58' E 001°51'0 0.0
2018-Nov-10 01:29N 50°58' E 001°51'0 0.0
2018-Nov-10 00:47N 50°58' E 001°51'0 0.0
2018-Nov-10 00:29N 50°58' E 001°51'0 0.0
2018-Nov-09 23:59N 50°58' E 001°51'0 0.0
2018-Nov-09 23:29N 50°58' E 001°51'0 0.0
2018-Nov-09 22:59N 50°58' E 001°51'0 0.0
2018-Nov-09 22:28N 50°58' E 001°51'0 0.0
2018-Nov-09 22:02N 50°58' E 001°51'0 0.0
2018-Nov-09 21:32N 50°58' E 001°51'0 0.0
2018-Nov-09 21:02N 50°58' E 001°51'0 0.0
2018-Nov-09 20:32N 50°58' E 001°51'0 0.0
2018-Nov-09 20:02N 50°58' E 001°51'3 7.0
2018-Nov-09 19:32N 50°58' E 001°45'917.2
2018-Nov-09 19:03N 51°01' E 001°33'918.7
2018-Nov-09 18:33N 51°07' E 001°21'1 1.4
2018-Nov-09 18:00N 51°07' E 001°20'1 2.4
2018-Nov-09 17:32N 51°07' E 001°22'2 3.8
2018-Nov-09 17:03N 51°07' E 001°25'815.4
2018-Nov-09 16:32N 51°03' E 001°35'1019.1
2018-Nov-09 16:02N 50°58' E 001°48'2 3.3
2018-Nov-09 15:32N 50°58' E 001°51'0 0.0
2018-Nov-09 15:02N 50°58' E 001°51'0 0.0
2018-Nov-09 14:29N 50°58' E 001°51'511.5
2018-Nov-09 14:02N 50°58' E 001°43'1020.2
2018-Nov-09 13:32N 51°03' E 001°28'714.0
2018-Nov-09 13:02N 51°07' E 001°20'0 0.0
2018-Nov-09 12:32N 51°07' E 001°20'0 0.0
2018-Nov-09 12:02N 51°07' E 001°20'3 6.1
2018-Nov-09 11:33N 51°07' E 001°25'917.2
2018-Nov-09 11:02N 51°03' E 001°37'816.4
2018-Nov-09 10:32N 50°58' E 001°48'3 3.2
2018-Nov-09 09:43N 50°58' E 001°52'0 0.0
2018-Nov-09 09:25N 50°58' E 001°52'0 0.0
2018-Nov-09 09:01N 50°58' E 001°52'0 0.0
2018-Nov-09 08:31N 50°58' E 001°52'0 0.0
2018-Nov-09 08:01N 50°58' E 001°52'0 0.0
2018-Nov-09 07:31N 50°58' E 001°52'0 0.0
2018-Nov-09 07:01N 50°58' E 001°52'0 0.0
2018-Nov-09 06:31N 50°58' E 001°52'0 0.0
2018-Nov-09 06:01N 50°58' E 001°52'0 0.0
2018-Nov-09 05:31N 50°58' E 001°52'0 0.0
2018-Nov-09 05:01N 50°58' E 001°52'0 0.0
2018-Nov-09 04:31N 50°58' E 001°52'0 0.0
2018-Nov-09 04:01N 50°58' E 001°52'0 0.0
2018-Nov-09 03:31N 50°58' E 001°52'0 0.0
2018-Nov-09 03:01N 50°58' E 001°52'0 0.0
2018-Nov-09 02:31N 50°58' E 001°52'0 0.0
2018-Nov-09 02:01N 50°58' E 001°52'0 0.0
2018-Nov-09 01:31N 50°58' E 001°52'0 0.0
2018-Nov-09 01:01N 50°58' E 001°52'0 0.0
2018-Nov-09 00:31N 50°58' E 001°52'0 0.0
2018-Nov-09 00:01N 50°58' E 001°52'0 0.0
2018-Nov-08 23:32N 50°58' E 001°52'0 0.0
2018-Nov-08 23:02N 50°58' E 001°52'0 0.0
2018-Nov-08 22:33N 50°58' E 001°52'0 0.0
2018-Nov-08 22:02N 50°58' E 001°52'0 0.0
2018-Nov-08 21:33N 50°58' E 001°52'0 0.0
2018-Nov-08 21:03N 50°58' E 001°52'0 0.0
2018-Nov-08 20:33N 50°58' E 001°52'0 0.0
2018-Nov-08 20:03N 50°58' E 001°52'0 0.2
2018-Nov-08 19:32N 50°58' E 001°51'713.4
2018-Nov-08 19:02N 50°58' E 001°41'918.0
2018-Nov-08 18:33N 51°04' E 001°29'713.7
2018-Nov-08 18:02N 51°07' E 001°20'0 0.0
2018-Nov-08 17:25N 51°07' E 001°20'2 4.0
2018-Nov-08 17:02N 51°07' E 001°22'816.5
2018-Nov-08 16:32N 51°03' E 001°34'917.9
2018-Nov-08 16:03N 50°58' E 001°46'3 6.8
2018-Nov-08 15:32N 50°58' E 001°51'0 0.0
2018-Nov-08 15:03N 50°58' E 001°51'0 0.0
2018-Nov-08 14:33N 50°58' E 001°51'612.9
2018-Nov-08 14:03N 50°59' E 001°41'1019.2
2018-Nov-08 13:33N 51°04' E 001°28'610.6
2018-Nov-08 12:58N 51°07' E 001°20'0 0.0
2018-Nov-08 12:08N 51°07' E 001°20'0 0.0
2018-Nov-08 12:02N 51°07' E 001°20'2 3.5
2018-Nov-08 11:32N 51°07' E 001°23'917.5
2018-Nov-08 11:02N 51°04' E 001°36'917.7
2018-Nov-08 10:32N 50°58' E 001°46'3 5.4
2018-Nov-08 09:55N 50°58' E 001°52'0 0.0
2018-Nov-08 09:28N 50°58' E 001°52'0 0.3
2018-Nov-08 08:59N 50°58' E 001°52'0 0.0
2018-Nov-08 08:32N 50°58' E 001°52'0 0.0
2018-Nov-08 08:02N 50°58' E 001°52'0 0.0
2018-Nov-08 07:32N 50°58' E 001°52'0 0.0
2018-Nov-08 07:02N 50°58' E 001°52'0 0.0
2018-Nov-08 06:29N 50°58' E 001°52'0 0.0
2018-Nov-08 06:02N 50°58' E 001°52'0 0.0
2018-Nov-08 05:32N 50°58' E 001°52'0 0.0
2018-Nov-08 05:02N 50°58' E 001°52'0 0.0
2018-Nov-08 04:32N 50°58' E 001°52'0 0.0
2018-Nov-08 04:02N 50°58' E 001°52'0 0.0
2018-Nov-08 03:32N 50°58' E 001°52'0 0.0
2018-Nov-08 03:02N 50°58' E 001°52'0 0.0
2018-Nov-08 02:32N 50°58' E 001°52'0 0.0
2018-Nov-08 02:02N 50°58' E 001°52'0 0.0
2018-Nov-08 01:32N 50°58' E 001°52'0 0.0
2018-Nov-08 00:59N 50°58' E 001°52'0 0.0
2018-Nov-08 00:43N 50°58' E 001°52'0 0.0
2018-Nov-08 00:32N 50°58' E 001°52'0 0.0
2018-Nov-08 00:28N 50°58' E 001°52'0 0.0
2018-Nov-08 00:02N 50°58' E 001°52'0 0.0
2018-Nov-07 23:32N 50°58' E 001°52'0 0.0
2018-Nov-07 23:02N 50°58' E 001°52'0 0.0
2018-Nov-07 22:32N 50°58' E 001°52'0 0.0
2018-Nov-07 22:02N 50°58' E 001°52'0 0.0
2018-Nov-07 21:32N 50°58' E 001°52'0 0.0
2018-Nov-07 21:02N 50°58' E 001°52'0 0.0
2018-Nov-07 20:32N 50°58' E 001°52'0 0.2
2018-Nov-07 20:02N 50°58' E 001°52'2 4.7
2018-Nov-07 19:32N 50°58' E 001°48'713.5
2018-Nov-07 19:02N 50°59' E 001°37'917.1
2018-Nov-07 18:33N 51°04' E 001°26'5 9.1
2018-Nov-07 17:58N 51°07' E 001°20'0 0.0
2018-Nov-07 17:32N 51°07' E 001°20'2 3.1
2018-Nov-07 17:02N 51°07' E 001°23'816.0
2018-Nov-07 16:32N 51°04' E 001°34'918.8
2018-Nov-07 16:02N 50°58' E 001°45'4 6.7
2018-Nov-07 15:31N 50°58' E 001°51'0 0.0
2018-Nov-07 15:00N 50°58' E 001°51'0 0.0
2018-Nov-07 14:33N 50°58' E 001°51'4 8.9
2018-Nov-07 14:02N 50°58' E 001°44'918.5
2018-Nov-07 13:32N 51°03' E 001°31'816.1
2018-Nov-07 13:01N 51°07' E 001°20'0 0.0
2018-Nov-07 12:32N 51°07' E 001°20'0 0.0
2018-Nov-07 12:02N 51°07' E 001°20'3 5.2
2018-Nov-07 11:32N 51°07' E 001°24'917.7
2018-Nov-07 11:02N 51°02' E 001°36'816.5
2018-Nov-07 10:32N 50°58' E 001°48'3 5.0
2018-Nov-07 10:02N 50°58' E 001°52'0 0.0
2018-Nov-07 09:32N 50°58' E 001°52'0 0.0
2018-Nov-07 09:02N 50°58' E 001°52'0 0.0
2018-Nov-07 08:32N 50°58' E 001°52'0 0.0
2018-Nov-07 08:00N 50°58' E 001°52'0 0.0
2018-Nov-07 07:32N 50°58' E 001°52'0 0.0
2018-Nov-07 07:00N 50°58' E 001°52'0 0.0
2018-Nov-07 06:32N 50°58' E 001°52'0 0.0
2018-Nov-07 06:02N 50°58' E 001°52'0 0.0
2018-Nov-07 05:32N 50°58' E 001°52'0 0.0
2018-Nov-07 05:02N 50°58' E 001°52'0 0.0
2018-Nov-07 04:32N 50°58' E 001°52'0 0.0
2018-Nov-06 23:30N 50°58' E 001°52'0 0.0
2018-Nov-06 23:03N 50°58' E 001°52'0 0.0
2018-Nov-06 23:00N 50°58' E 001°52'0 0.0
2018-Nov-06 22:00N 50°58' E 001°52'0 0.0
2018-Nov-06 21:30N 50°58' E 001°52'0 0.0
2018-Nov-06 21:03N 50°58' E 001°52'0 0.0
2018-Nov-06 21:00N 50°58' E 001°52'0 0.0
2018-Nov-06 20:30N 50°58' E 001°52'0 0.0
2018-Nov-06 20:03N 50°58' E 001°52'0 0.0
2018-Nov-06 20:00N 50°58' E 001°52'0 0.0
2018-Nov-06 19:30N 50°58' E 001°52'3 6.8
2018-Nov-06 19:04N 50°58' E 001°47'117.7
2018-Nov-06 19:01N 50°58' E 001°46'917.7
2018-Nov-06 18:31N 51°02' E 001°33'818.2
2018-Nov-06 18:03N 51°07' E 001°22'117.0
2018-Nov-06 18:00N 51°07' E 001°21'1 1.4
2018-Nov-06 17:28N 51°07' E 001°20'0 0.0
2018-Nov-06 17:03N 51°07' E 001°20'0 0.5
2018-Nov-06 17:00N 51°07' E 001°20'714.3
2018-Nov-06 16:31N 51°06' E 001°31'920.0
2018-Nov-06 16:04N 50°60' E 001°42'120.1
2018-Nov-06 16:00N 50°59' E 001°43'510.4
2018-Nov-06 15:30N 50°58' E 001°51'0 0.0
2018-Nov-06 15:03N 50°58' E 001°51'0 0.0
2018-Nov-06 15:00N 50°58' E 001°51'0 0.5
2018-Nov-06 14:30N 50°58' E 001°51'715.5
2018-Nov-06 14:03N 50°59' E 001°40'117.9
2018-Nov-06 14:00N 50°59' E 001°38'917.8
2018-Nov-06 13:30N 51°04' E 001°26'510.9
2018-Nov-06 13:02N 51°07' E 001°20'0 0.0
2018-Nov-06 13:00N 51°07' E 001°20'0 0.0
2018-Nov-06 12:28N 51°07' E 001°20'0 0.9
2018-Nov-06 12:03N 51°07' E 001°20'0 1.0
2018-Nov-06 12:00N 51°07' E 001°20'917.2
2018-Nov-06 11:31N 51°04' E 001°32'919.6
2018-Nov-06 11:04N 50°59' E 001°44'118.6
2018-Nov-06 11:00N 50°58' E 001°45'4 8.1
2018-Nov-06 10:30N 50°58' E 001°52'0 0.0
2018-Nov-06 10:03N 50°58' E 001°52'0 0.0
2018-Nov-06 10:00N 50°58' E 001°52'0 0.0
2018-Nov-06 09:30N 50°58' E 001°52'0 0.0
2018-Nov-06 09:03N 50°58' E 001°52'0 0.0
2018-Nov-06 09:01N 50°58' E 001°52'0 0.0
2018-Nov-06 08:30N 50°58' E 001°52'0 0.0
2018-Nov-06 08:03N 50°58' E 001°52'0 0.0
2018-Nov-06 08:01N 50°58' E 001°52'0 0.0
2018-Nov-06 07:30N 50°58' E 001°52'0 0.0
2018-Nov-06 07:03N 50°58' E 001°52'0 0.0
2018-Nov-06 07:00N 50°58' E 001°52'0 0.0
2018-Nov-06 06:31N 50°58' E 001°52'0 0.0
2018-Nov-06 06:03N 50°58' E 001°52'0 0.0
2018-Nov-06 06:00N 50°58' E 001°52'0 0.0
2018-Nov-06 05:30N 50°58' E 001°52'0 0.0
2018-Nov-06 05:03N 50°58' E 001°52'0 0.0
2018-Nov-06 05:00N 50°58' E 001°52'0 0.0
2018-Nov-06 04:31N 50°58' E 001°52'0 0.0
2018-Nov-06 04:03N 50°58' E 001°52'0 0.0
2018-Nov-06 04:01N 50°58' E 001°52'0 0.0
2018-Nov-06 03:30N 50°58' E 001°52'0 0.0
2018-Nov-06 03:03N 50°58' E 001°52'0 0.0
2018-Nov-06 03:00N 50°58' E 001°52'0 0.0
2018-Nov-06 02:30N 50°58' E 001°52'0 0.0
2018-Nov-06 02:03N 50°58' E 001°52'0 0.0
2018-Nov-06 02:00N 50°58' E 001°52'0 0.0
2018-Nov-06 01:30N 50°58' E 001°52'0 0.0
2018-Nov-06 00:30N 50°58' E 001°52'0 0.0
2018-Nov-05 23:30N 50°58' E 001°52'0 0.0
2018-Nov-05 23:03N 50°58' E 001°52'0 0.0
2018-Nov-05 23:01N 50°58' E 001°52'0 0.0
2018-Nov-05 22:30N 50°58' E 001°52'0 0.0
2018-Nov-05 22:03N 50°58' E 001°52'0 0.0
2018-Nov-05 22:00N 50°58' E 001°52'0 0.0
2018-Nov-05 21:30N 50°58' E 001°52'0 0.0
2018-Nov-05 21:03N 50°58' E 001°52'0 0.0
2018-Nov-05 21:00N 50°58' E 001°52'0 0.0
2018-Nov-05 20:30N 50°58' E 001°52'0 0.0
2018-Nov-05 20:04N 50°58' E 001°52'0 0.0
2018-Nov-05 20:00N 50°58' E 001°52'1 1.3
2018-Nov-05 19:31N 50°58' E 001°51'817.3
2018-Nov-05 19:03N 50°59' E 001°38'119.4
2018-Nov-05 19:00N 50°60' E 001°37'816.5
2018-Nov-05 18:31N 51°05' E 001°26'510.6
2018-Nov-05 18:03N 51°07' E 001°20'0 0.0
2018-Nov-05 18:00N 51°07' E 001°20'0 0.0
2018-Nov-05 17:29N 51°07' E 001°20'0 0.0
2018-Nov-05 17:02N 51°07' E 001°20'0 0.0
2018-Nov-05 17:00N 51°07' E 001°20'612.3
2018-Nov-05 16:30N 51°06' E 001°29'920.4
2018-Nov-05 16:03N 50°60' E 001°41'120.5
2018-Nov-05 16:00N 50°59' E 001°42'611.3
2018-Nov-05 15:30N 50°58' E 001°51'0 0.0
2018-Nov-05 15:03N 50°58' E 001°51'0 0.0
2018-Nov-05 15:00N 50°58' E 001°51'0 0.1
2018-Nov-05 14:30N 50°58' E 001°51'612.9
2018-Nov-05 14:03N 50°58' E 001°42'1017.9
2018-Nov-05 13:30N 51°04' E 001°29'713.8
2018-Nov-05 13:02N 51°07' E 001°20'0 0.0
2018-Nov-05 12:55N 51°07' E 001°20'0 0.0
2018-Nov-05 12:23N 51°07' E 001°20'0 0.0
2018-Nov-05 11:58N 51°07' E 001°20'1 1.7
2018-Nov-05 11:30N 51°07' E 001°21'818.6
2018-Nov-05 11:03N 51°03' E 001°33'120.1
2018-Nov-05 11:00N 51°03' E 001°34'918.5
2018-Nov-05 10:30N 50°58' E 001°47'3 6.3
2018-Nov-05 10:03N 50°58' E 001°52'0 0.0
2018-Nov-05 10:00N 50°58' E 001°52'0 0.0
2018-Nov-05 09:30N 50°58' E 001°52'0 0.3
2018-Nov-05 09:03N 50°58' E 001°52'0 0.0
2018-Nov-05 09:00N 50°58' E 001°52'0 0.0
2018-Nov-05 08:30N 50°58' E 001°52'0 0.0
2018-Nov-05 08:03N 50°58' E 001°52'0 0.0
2018-Nov-05 08:00N 50°58' E 001°52'0 0.0
2018-Nov-05 07:30N 50°58' E 001°52'0 0.0
2018-Nov-05 07:03N 50°58' E 001°52'0 0.0
2018-Nov-05 07:00N 50°58' E 001°52'0 0.0
2018-Nov-05 06:30N 50°58' E 001°52'0 0.0
2018-Nov-05 06:03N 50°58' E 001°52'0 0.0
2018-Nov-05 06:00N 50°58' E 001°52'0 0.0
2018-Nov-05 05:30N 50°58' E 001°52'0 0.0
2018-Nov-05 05:03N 50°58' E 001°52'0 0.0
2018-Nov-05 05:00N 50°58' E 001°52'0 0.0
2018-Nov-05 04:30N 50°58' E 001°52'0 0.0
2018-Nov-05 04:03N 50°58' E 001°52'0 0.0
2018-Nov-05 04:00N 50°58' E 001°52'0 0.0
2018-Nov-05 03:30N 50°58' E 001°52'0 0.0
2018-Nov-05 03:03N 50°58' E 001°52'0 0.0
2018-Nov-05 03:00N 50°58' E 001°52'0 0.0
2018-Nov-05 02:30N 50°58' E 001°52'0 0.0
2018-Nov-05 02:03N 50°58' E 001°52'0 0.0
2018-Nov-05 02:00N 50°58' E 001°52'0 0.0
2018-Nov-05 01:30N 50°58' E 001°52'0 0.0
2018-Nov-05 01:03N 50°58' E 001°52'0 0.0
2018-Nov-05 01:00N 50°58' E 001°52'0 0.0
2018-Nov-05 00:31N 50°58' E 001°52'0 0.0
2018-Nov-05 00:03N 50°58' E 001°52'0 0.0
2018-Nov-05 00:00N 50°58' E 001°52'0 0.0
2018-Nov-04 23:31N 50°58' E 001°52'0 0.0
2018-Nov-04 23:03N 50°58' E 001°52'0 0.0
2018-Nov-04 23:00N 50°58' E 001°52'0 0.0
2018-Nov-04 22:29N 50°58' E 001°52'0 0.0
2018-Nov-04 22:03N 50°58' E 001°52'0 0.0
2018-Nov-04 22:00N 50°58' E 001°52'0 0.0
2018-Nov-04 21:30N 50°58' E 001°52'0 0.0
2018-Nov-04 21:03N 50°58' E 001°52'0 0.0
2018-Nov-04 21:00N 50°58' E 001°52'0 0.0
2018-Nov-04 20:30N 50°58' E 001°52'0 0.0
2018-Nov-04 20:03N 50°58' E 001°52'0 0.0
2018-Nov-04 20:01N 50°58' E 001°52'0 0.2
2018-Nov-04 19:30N 50°58' E 001°52'4 7.9
2018-Nov-04 19:03N 50°58' E 001°46'120.2
2018-Nov-04 19:00N 50°58' E 001°44'1019.8
2018-Nov-04 18:30N 51°02' E 001°30'817.8
2018-Nov-04 18:03N 51°07' E 001°20'0 0.1
2018-Nov-04 17:50N 51°07' E 001°20'0 0.0
2018-Nov-04 17:23N 51°07' E 001°20'0 0.0
2018-Nov-04 16:58N 51°07' E 001°20'612.7
2018-Nov-04 16:30N 51°06' E 001°29'920.0
2018-Nov-04 16:03N 51°00' E 001°40'121.0
2018-Nov-04 16:00N 50°59' E 001°42'612.1
2018-Nov-04 15:30N 50°58' E 001°51'0 0.0
2018-Nov-04 15:03N 50°58' E 001°51'0 0.0
2018-Nov-04 15:00N 50°58' E 001°51'0 0.0
2018-Nov-04 14:30N 50°58' E 001°51'613.3
2018-Nov-04 14:03N 50°58' E 001°41'117.7
2018-Nov-04 14:00N 50°59' E 001°40'918.0
2018-Nov-04 13:30N 51°04' E 001°28'613.9
2018-Nov-04 13:03N 51°07' E 001°20'0 0.0
2018-Nov-04 13:00N 51°07' E 001°20'0 0.0
2018-Nov-04 12:30N 51°07' E 001°20'0 0.0
2018-Nov-04 12:03N 51°07' E 001°20'0 0.0
2018-Nov-04 11:59N 51°07' E 001°20'2 4.7
2018-Nov-04 11:31N 51°07' E 001°24'919.1
2018-Nov-04 11:04N 51°03' E 001°36'119.6
2018-Nov-04 11:01N 51°02' E 001°37'917.7
2018-Nov-04 10:31N 50°58' E 001°49'1 3.2
2018-Nov-04 10:03N 50°58' E 001°52'0 0.0
2018-Nov-04 10:00N 50°58' E 001°52'0 0.5
2018-Nov-04 09:31N 50°58' E 001°52'0 0.0
2018-Nov-04 08:58N 50°58' E 001°52'0 0.0
2018-Nov-04 08:28N 50°58' E 001°52'0 0.0
2018-Nov-04 08:01N 50°58' E 001°52'0 0.0
2018-Nov-04 07:58N 50°58' E 001°52'0 0.0
2018-Nov-04 07:22N 50°58' E 001°52'0 0.0
2018-Nov-04 07:01N 50°58' E 001°52'0 0.0
2018-Nov-04 06:58N 50°58' E 001°52'0 0.0
2018-Nov-04 06:28N 50°58' E 001°52'0 0.0
2018-Nov-04 06:03N 50°58' E 001°52'0 0.0
2018-Nov-04 06:00N 50°58' E 001°52'0 0.0
2018-Nov-04 05:30N 50°58' E 001°52'0 0.0
2018-Nov-04 05:03N 50°58' E 001°52'0 0.0
2018-Nov-04 05:00N 50°58' E 001°52'0 0.0
2018-Nov-04 04:30N 50°58' E 001°52'0 0.0
2018-Nov-04 04:03N 50°58' E 001°52'0 0.0
2018-Nov-04 04:00N 50°58' E 001°52'0 0.0
2018-Nov-04 03:31N 50°58' E 001°52'0 0.0
2018-Nov-04 03:04N 50°58' E 001°52'0 0.0
2018-Nov-04 03:00N 50°58' E 001°52'0 0.0
2018-Nov-04 02:30N 50°58' E 001°52'0 0.0
2018-Nov-04 02:03N 50°58' E 001°52'0 0.0
2018-Nov-04 02:00N 50°58' E 001°52'0 0.0
2018-Nov-04 01:30N 50°58' E 001°52'0 0.0
2018-Nov-04 01:03N 50°58' E 001°52'0 0.0
2018-Nov-04 01:00N 50°58' E 001°52'0 0.0
2018-Nov-04 00:30N 50°58' E 001°52'0 0.0
2018-Nov-04 00:03N 50°58' E 001°52'0 0.0
2018-Nov-04 00:00N 50°58' E 001°52'0 0.0
2018-Nov-03 23:30N 50°58' E 001°52'0 0.0
2018-Nov-03 23:03N 50°58' E 001°52'0 0.0
2018-Nov-03 23:00N 50°58' E 001°52'0 0.0
2018-Nov-03 22:30N 50°58' E 001°52'0 0.0
2018-Nov-03 20:30N 50°58' E 001°52'0 0.0
2018-Nov-03 20:03N 50°58' E 001°52'0 0.0
2018-Nov-03 20:00N 50°58' E 001°52'0 0.0
2018-Nov-03 19:30N 50°58' E 001°52'0 0.0
2018-Nov-03 19:03N 50°58' E 001°52'0 0.0
2018-Nov-03 19:00N 50°58' E 001°52'612.6
2018-Nov-03 18:31N 50°59' E 001°42'919.6
2018-Nov-03 18:03N 51°03' E 001°30'119.2
2018-Nov-03 18:01N 51°04' E 001°29'713.1
2018-Nov-03 17:30N 51°07' E 001°20'0 0.4
2018-Nov-03 17:03N 51°07' E 001°20'0 0.4
2018-Nov-03 17:01N 51°07' E 001°20'917.5
2018-Nov-03 16:31N 51°03' E 001°32'920.5
2018-Nov-03 16:03N 50°58' E 001°45'119.5
2018-Nov-03 16:00N 50°58' E 001°46'3 5.9
2018-Nov-03 15:30N 50°58' E 001°51'0 0.0
2018-Nov-03 15:03N 50°58' E 001°51'0 0.0
2018-Nov-03 15:00N 50°58' E 001°51'0 0.1
2018-Nov-03 14:30N 50°58' E 001°51'714.5
2018-Nov-03 14:03N 50°58' E 001°41'118.9
2018-Nov-03 14:00N 50°59' E 001°39'1019.2
2018-Nov-03 13:30N 51°04' E 001°26'511.7
2018-Nov-03 13:03N 51°07' E 001°20'0 0.0
2018-Nov-03 13:01N 51°07' E 001°20'0 0.0
2018-Nov-03 12:30N 51°07' E 001°20'0 0.0
2018-Nov-03 11:58N 51°07' E 001°20'1 3.2
2018-Nov-03 11:31N 51°07' E 001°22'919.6
2018-Nov-03 11:04N 51°03' E 001°34'120.2
2018-Nov-03 11:01N 51°02' E 001°36'918.5
2018-Nov-03 10:31N 50°58' E 001°49'2 3.5
2018-Nov-03 10:03N 50°58' E 001°52'0 0.0
2018-Nov-03 10:00N 50°58' E 001°52'0 0.0
2018-Nov-03 09:30N 50°58' E 001°52'0 0.0
2018-Nov-03 09:03N 50°58' E 001°52'0 0.0
2018-Nov-03 09:00N 50°58' E 001°52'0 0.0
2018-Nov-03 08:31N 50°58' E 001°52'0 0.0
2018-Nov-03 08:03N 50°58' E 001°52'0 0.0
2018-Nov-03 08:00N 50°58' E 001°52'0 0.0
2018-Nov-03 07:30N 50°58' E 001°52'0 0.0
2018-Nov-03 07:03N 50°58' E 001°52'0 0.0
2018-Nov-03 07:00N 50°58' E 001°52'0 0.0
2018-Nov-03 06:30N 50°58' E 001°52'0 0.0
2018-Nov-03 06:03N 50°58' E 001°52'0 0.0
2018-Nov-03 06:00N 50°58' E 001°52'0 0.0
2018-Nov-03 05:30N 50°58' E 001°52'0 0.0
2018-Nov-03 05:03N 50°58' E 001°52'0 0.0
2018-Nov-03 05:00N 50°58' E 001°52'0 0.0
2018-Nov-03 04:30N 50°58' E 001°52'0 0.0
2018-Nov-03 04:03N 50°58' E 001°52'0 0.0
2018-Nov-03 04:00N 50°58' E 001°52'0 0.0
2018-Nov-03 03:31N 50°58' E 001°52'0 0.0
2018-Nov-03 03:03N 50°58' E 001°52'0 0.0
2018-Nov-03 03:00N 50°58' E 001°52'0 0.0
2018-Nov-03 02:30N 50°58' E 001°52'0 0.0
2018-Nov-03 02:03N 50°58' E 001°52'0 0.0
2018-Nov-03 02:00N 50°58' E 001°52'0 0.0
2018-Nov-03 01:30N 50°58' E 001°52'0 0.0
2018-Nov-03 01:03N 50°58' E 001°52'0 0.0
2018-Nov-03 01:00N 50°58' E 001°52'0 0.0
2018-Nov-03 00:30N 50°58' E 001°52'0 0.0
2018-Nov-03 00:03N 50°58' E 001°52'0 0.0
2018-Nov-03 00:00N 50°58' E 001°52'0 0.0
2018-Nov-02 23:30N 50°58' E 001°52'0 0.0
2018-Nov-02 23:03N 50°58' E 001°52'0 0.0
2018-Nov-02 23:00N 50°58' E 001°52'0 0.0
2018-Nov-02 22:30N 50°58' E 001°52'0 0.0
2018-Nov-02 22:03N 50°58' E 001°52'0 0.0
2018-Nov-02 21:59N 50°58' E 001°52'0 0.0
2018-Nov-02 21:30N 50°58' E 001°52'0 0.0
2018-Nov-02 21:03N 50°58' E 001°52'0 0.0
2018-Nov-02 21:00N 50°58' E 001°52'0 0.0
2018-Nov-02 20:30N 50°58' E 001°52'0 0.0
2018-Nov-02 20:03N 50°58' E 001°52'0 0.0
2018-Nov-02 20:00N 50°58' E 001°52'0 0.0
2018-Nov-02 19:31N 50°58' E 001°52'1 2.9
2018-Nov-02 19:03N 50°58' E 001°50'0 9.2
2018-Nov-02 19:00N 50°58' E 001°49'714.9
2018-Nov-02 18:30N 50°59' E 001°37'919.9
2018-Nov-02 18:04N 51°04' E 001°26'120.0
2018-Nov-02 18:01N 51°05' E 001°25'4 7.9
2018-Nov-02 17:30N 51°07' E 001°20'0 0.0
2018-Nov-02 17:03N 51°07' E 001°20'0 0.0
2018-Nov-02 17:00N 51°07' E 001°20'5 9.4
2018-Nov-02 16:30N 51°06' E 001°27'920.6
2018-Nov-02 16:03N 51°01' E 001°39'120.7
2018-Nov-02 16:00N 51°00' E 001°41'713.2
2018-Nov-02 15:29N 50°58' E 001°51'0 0.0
2018-Nov-02 15:03N 50°58' E 001°51'0 0.0
2018-Nov-02 15:00N 50°58' E 001°51'0 1.0
2018-Nov-02 14:30N 50°58' E 001°50'814.2
2018-Nov-02 13:58N 50°58' E 001°38'919.1
2018-Nov-02 13:30N 51°04' E 001°27'612.6
2018-Nov-02 13:03N 51°07' E 001°20'0 0.0
2018-Nov-02 12:54N 51°07' E 001°20'0 0.0
2018-Nov-02 12:30N 51°07' E 001°20'0 0.7
2018-Nov-02 12:03N 51°07' E 001°20'0 0.9
2018-Nov-02 12:00N 51°07' E 001°20'612.8
2018-Nov-02 11:30N 51°06' E 001°30'817.1
2018-Nov-02 11:03N 51°00' E 001°38'117.6
2018-Nov-02 11:00N 50°60' E 001°40'815.2
2018-Nov-02 10:30N 50°58' E 001°51'0 0.3
2018-Nov-02 10:03N 50°58' E 001°52'0 0.0
2018-Nov-02 10:00N 50°58' E 001°52'0 0.0
2018-Nov-02 09:28N 50°58' E 001°52'0 0.0
2018-Nov-02 09:03N 50°58' E 001°52'0 0.0
2018-Nov-02 09:00N 50°58' E 001°52'0 0.0
2018-Nov-02 08:30N 50°58' E 001°52'0 0.0
2018-Nov-02 08:03N 50°58' E 001°52'0 0.0
2018-Nov-02 08:00N 50°58' E 001°52'0 0.0
2018-Nov-02 07:30N 50°58' E 001°52'0 0.0
2018-Nov-02 07:03N 50°58' E 001°52'0 0.0
2018-Nov-02 07:00N 50°58' E 001°52'0 0.0
2018-Nov-02 06:30N 50°58' E 001°52'0 0.0
2018-Nov-02 06:03N 50°58' E 001°52'0 0.0
2018-Nov-02 06:00N 50°58' E 001°52'0 0.0
2018-Nov-02 05:30N 50°58' E 001°52'0 0.0
2018-Nov-02 05:03N 50°58' E 001°52'0 0.0
2018-Nov-02 05:00N 50°58' E 001°52'0 0.0
2018-Nov-02 04:30N 50°58' E 001°52'0 0.0
2018-Nov-02 04:03N 50°58' E 001°52'0 0.0
2018-Nov-02 04:00N 50°58' E 001°52'0 0.0
2018-Nov-02 03:30N 50°58' E 001°52'0 0.0
2018-Nov-02 03:03N 50°58' E 001°52'0 0.0
2018-Nov-02 03:00N 50°58' E 001°52'0 0.0
2018-Nov-02 02:30N 50°58' E 001°52'0 0.0
2018-Nov-02 02:03N 50°58' E 001°52'0 0.0
2018-Nov-02 02:00N 50°58' E 001°52'0 0.0
2018-Nov-02 01:30N 50°58' E 001°52'0 0.0
2018-Nov-02 01:03N 50°58' E 001°52'0 0.0
2018-Nov-02 01:00N 50°58' E 001°52'0 0.0
2018-Nov-02 00:56N 50°58' E 001°52'0 0.0
2018-Nov-02 00:36N 50°58' E 001°52'0 0.0
2018-Nov-02 00:30N 50°58' E 001°52'0 0.0
2018-Nov-02 00:03N 50°58' E 001°52'0 0.0
2018-Nov-02 00:00N 50°58' E 001°52'0 0.0
2018-Nov-01 23:30N 50°58' E 001°52'0 0.0
2018-Nov-01 23:03N 50°58' E 001°52'0 0.0
2018-Nov-01 23:00N 50°58' E 001°52'0 0.0
2018-Nov-01 22:30N 50°58' E 001°52'0 0.0
2018-Nov-01 22:03N 50°58' E 001°52'0 0.0
2018-Nov-01 22:00N 50°58' E 001°52'0 0.0
2018-Nov-01 21:30N 50°58' E 001°52'0 0.0
2018-Nov-01 21:03N 50°58' E 001°52'0 0.0
2018-Nov-01 21:00N 50°58' E 001°52'0 0.0
2018-Nov-01 20:30N 50°58' E 001°52'0 0.0
2018-Nov-01 20:03N 50°58' E 001°52'0 0.0
2018-Nov-01 20:00N 50°58' E 001°52'0 0.0
2018-Nov-01 19:30N 50°58' E 001°52'1 2.1
2018-Nov-01 19:03N 50°58' E 001°50'112.5
2018-Nov-01 19:00N 50°58' E 001°49'918.0
2018-Nov-01 18:30N 50°60' E 001°35'919.3
2018-Nov-01 18:03N 51°06' E 001°25'120.2
2018-Nov-01 18:00N 51°06' E 001°23'2 4.6
2018-Nov-01 17:29N 51°07' E 001°20'0 0.0
2018-Nov-01 17:03N 51°07' E 001°20'0 0.2
2018-Nov-01 17:00N 51°07' E 001°20'510.8
2018-Nov-01 16:31N 51°05' E 001°28'919.2
2018-Nov-01 16:03N 51°01' E 001°39'119.0
2018-Nov-01 16:00N 51°00' E 001°41'713.1
2018-Nov-01 15:29N 50°58' E 001°51'0 0.0
2018-Nov-01 15:03N 50°58' E 001°51'0 0.0
2018-Nov-01 15:00N 50°58' E 001°51'0 0.0
2018-Nov-01 14:30N 50°58' E 001°51'510.6
2018-Nov-01 14:00N 50°58' E 001°43'918.9
2018-Nov-01 13:31N 51°03' E 001°30'716.3
2018-Nov-01 13:03N 51°07' E 001°20'0 0.0
2018-Nov-01 13:00N 51°07' E 001°20'0 0.0
2018-Nov-01 12:28N 51°07' E 001°20'0 0.0
2018-Nov-01 12:02N 51°07' E 001°20'0 0.0
2018-Nov-01 11:59N 51°07' E 001°20'0 0.6
2018-Nov-01 11:31N 51°07' E 001°20'817.7
2018-Nov-01 11:03N 51°04' E 001°32'119.8
2018-Nov-01 11:00N 51°04' E 001°33'1019.5
2018-Nov-01 10:30N 50°58' E 001°46'3 7.5
2018-Nov-01 10:03N 50°58' E 001°52'0 0.0
2018-Nov-01 10:00N 50°58' E 001°52'0 0.0
2018-Nov-01 09:30N 50°58' E 001°52'0 0.3
2018-Nov-01 09:03N 50°58' E 001°52'0 0.7
2018-Nov-01 09:00N 50°58' E 001°52'0 0.0
2018-Nov-01 08:30N 50°58' E 001°52'0 0.0
2018-Nov-01 08:03N 50°58' E 001°52'0 0.0
2018-Nov-01 08:00N 50°58' E 001°52'0 0.0
2018-Nov-01 07:30N 50°58' E 001°52'0 0.0
2018-Nov-01 07:03N 50°58' E 001°52'0 0.0
2018-Nov-01 07:00N 50°58' E 001°52'0 0.0
2018-Nov-01 06:30N 50°58' E 001°52'0 0.0
2018-Nov-01 06:03N 50°58' E 001°52'0 0.0
2018-Nov-01 06:00N 50°58' E 001°52'0 0.0
2018-Nov-01 05:30N 50°58' E 001°52'0 0.0
2018-Nov-01 05:03N 50°58' E 001°52'0 0.0
2018-Nov-01 05:00N 50°58' E 001°52'0 0.0
2018-Nov-01 04:30N 50°58' E 001°52'0 0.0
2018-Nov-01 04:03N 50°58' E 001°52'0 0.0
2018-Nov-01 04:00N 50°58' E 001°52'0 0.0
2018-Nov-01 03:30N 50°58' E 001°52'0 0.0
2018-Nov-01 03:03N 50°58' E 001°52'0 0.0
2018-Nov-01 03:00N 50°58' E 001°52'0 0.0
2018-Nov-01 02:30N 50°58' E 001°52'  

Dump ship's entire track history